Weather reports worldwide

Advertisment
Cerezo De Arriba, Spain (8143): temperature & dewpoint: 11.08.2019 15:00:00 - 17.08.2019 15:00:00 (CEST)Cerezo De Arriba, Spain (8143): wind speed & gusts: 11.08.2019 15:00:00 - 17.08.2019 15:00:00 (CEST)Cerezo De Arriba, Spain (8143): wind direction: 11.08.2019 15:00:00 - 17.08.2019 15:00:00 (CEST)Cerezo De Arriba, Spain (8143): visibility: 11.08.2019 15:00:00 - 17.08.2019 15:00:00 (CEST)Cerezo De Arriba, Spain (8143): sunshine duration: 11.08.2019 15:00:00 - 17.08.2019 15:00:00 (CEST)Cerezo De Arriba, Spain (8143): precipitation: 11.08.2019 15:00:00 - 17.08.2019 15:00:00 (CEST)
Date & Time tt [°C] td [°C] ff [km/h] ff [kn] fx [km/h] fx [kn] dd vv [km] sd [min] rr [mm]
17.08.2019 15:00:00 27,5 3,9 9 5 32 17 ENE 20 60 0,0
17.08.2019 14:00:00 26,5 3,6 9 5 29 16 SSE 5 60 -
17.08.2019 13:00:00 25,3 3,2 13 7 28 15 S 20 60 0,0
17.08.2019 12:00:00 24,8 3,4 8 4 29 16 SW 19 60 0,0
17.08.2019 11:00:00 23,2 3,6 17 9 31 17 SSW 20 60 0,0
17.08.2019 10:00:00 21,2 3,4 18 10 32 17 S 20 60 0,0
17.08.2019 09:00:00 18,3 3,4 21 11 30 16 S 20 2 0,0
17.08.2019 08:00:00 17,5 1,9 16 8 23 12 S 20 0 -
17.08.2019 07:00:00 17,4 2,1 8 5 23 12 S 20 0 0,0
17.08.2019 06:00:00 15,8 2,5 12 7 21 11 S 20 0 0,0
17.08.2019 05:00:00 16,7 2,7 10 5 29 15 S 20 0 0,0
17.08.2019 04:00:00 16,7 2,3 10 5 20 11 SW 20 0 0,0
17.08.2019 03:00:00 17,1 1,5 12 6 18 10 SSW 20 0 0,0
17.08.2019 02:00:00 17,3 0,9 5 3 13 7 S 20 0 -
17.08.2019 01:00:00 17,4 2,9 7 4 13 7 S 20 0 0,0
17.08.2019 00:00:00 17,9 4,5 4 2 9 5 WSW 20 0 0,0
16.08.2019 23:00:00 18,3 4,1 4 2 11 6 WSW 20 0 0,0
16.08.2019 22:00:00 19,8 5,1 3 1 17 9 ESE 20 0 0,0
16.08.2019 21:00:00 21,7 5,1 8 4 33 18 N 20 29 0,0
16.08.2019 20:00:00 24,0 5,3 10 5 34 18 N 20 60 -
16.08.2019 19:00:00 26,0 5,6 9 5 31 17 ENE 20 60 0,0
16.08.2019 18:00:00 25,3 4,5 14 7 32 17 N 20 43 0,0
16.08.2019 17:00:00 26,2 3,9 16 8 44 24 NW 20 60 0,0
16.08.2019 16:00:00 26,1 3,9 9 5 35 19 NW 20 60 0,0
16.08.2019 15:00:00 24,9 5,6 16 8 32 17 WNW 20 58 0,0
16.08.2019 14:00:00 22,7 5,1 16 9 41 22 N 20 50 -
16.08.2019 13:00:00 24,5 6,2 7 4 22 12 W 20 38 0,0
16.08.2019 12:00:00 23,9 7,1 6 4 16 9 SE 20 49 0,0
16.08.2019 11:00:00 22,0 7,7 4 2 13 7 N 20 57 0,0
16.08.2019 10:00:00 20,3 7,3 7 4 11 6 SE 20 60 0,0
16.08.2019 09:00:00 16,6 7,0 4 2 9 5 S 20 5 0,0
16.08.2019 08:00:00 16,0 6,4 5 3 10 5 SW 20 0 -
16.08.2019 07:00:00 15,2 6,2 6 4 10 6 SW 20 0 0,0
16.08.2019 06:00:00 14,9 6,4 5 3 11 6 SSW 20 0 0,0
16.08.2019 05:00:00 15,2 6,5 5 3 11 6 S 20 0 0,0
16.08.2019 04:00:00 15,2 6,7 9 5 16 9 S 20 0 0,0
16.08.2019 03:00:00 16,0 7,3 9 5 14 8 S 20 0 0,0
16.08.2019 02:00:00 15,9 7,7 9 5 16 9 SSE 20 0 -
16.08.2019 01:00:00 15,8 7,6 8 4 13 7 SSE 20 0 0,0
16.08.2019 00:00:00 15,8 7,6 8 4 15 8 SSE 20 0 0,0
15.08.2019 23:00:00 16,5 7,7 6 3 15 8 E 20 0 0,0
15.08.2019 22:00:00 16,1 8,1 6 4 19 10 SSE 20 0 0,0
15.08.2019 21:00:00 18,8 7,6 10 5 21 12 NNE 20 31 0,0
15.08.2019 20:00:00 22,2 4,6 10 6 31 17 N 20 60 -
15.08.2019 19:00:00 23,2 3,2 11 6 32 17 NNW 20 60 0,0
15.08.2019 18:00:00 24,2 3,4 10 6 37 20 NW 20 60 0,0
15.08.2019 17:00:00 23,8 2,7 11 6 35 19 NNW 19 60 0,0
15.08.2019 16:00:00 23,5 2,9 15 8 33 18 N 20 60 0,0
15.08.2019 15:00:00 22,9 3,4 13 7 33 18 N 20 60 0,0
15.08.2019 14:00:00 21,9 6,1 14 7 32 17 N 20 60 -
15.08.2019 13:00:00 21,7 7,1 10 5 24 13 N 20 56 0,0
15.08.2019 12:00:00 19,9 10,9 9 5 29 16 NNW 20 56 0,0
15.08.2019 11:00:00 20,4 9,9 5 3 18 10 W 20 60 0,0
15.08.2019 10:00:00 18,8 9,6 6 3 19 10 SW 20 60 0,0
15.08.2019 09:00:00 17,1 8,3 9 5 22 12 W 20 8 0,0
15.08.2019 08:00:00 16,2 7,1 11 6 17 9 S 20 0 -
15.08.2019 07:00:00 15,1 4,8 6 4 26 14 SW 20 0 0,0
15.08.2019 06:00:00 15,1 4,8 9 5 17 9 SSW 20 0 0,0
15.08.2019 05:00:00 14,4 4,6 10 5 18 10 SW 20 0 0,0
15.08.2019 04:00:00 15,7 3,8 8 4 16 8 W 20 0 0,0
15.08.2019 03:00:00 15,0 4,1 6 4 9 5 S 20 0 0,0
15.08.2019 02:00:00 15,4 3,2 6 3 10 6 SSW 20 0 -
15.08.2019 01:00:00 15,3 2,9 4 2 8 5 SSW 20 0 0,0
15.08.2019 00:00:00 15,3 2,1 4 2 8 5 SW 20 0 0,0
14.08.2019 23:00:00 16,0 0,9 3 2 11 6 SSW 20 0 0,0
14.08.2019 22:00:00 17,4 0,0 4 2 18 10 S 20 0 0,0
14.08.2019 21:00:00 19,1 0,2 4 2 17 9 S 20 33 0,0
14.08.2019 20:00:00 22,1 0,6 6 4 29 16 N 20 60 -
14.08.2019 19:00:00 22,2 -0,5 11 6 31 17 N 20 60 0,0
14.08.2019 18:00:00 22,5 -1,0 13 7 35 19 N 20 60 0,0
14.08.2019 17:00:00 23,5 0,6 11 6 30 16 NW 20 60 0,0
14.08.2019 16:00:00 23,1 0,9 11 6 33 18 NW 20 60 0,0
14.08.2019 15:00:00 22,6 1,5 9 5 26 14 WNW 20 60 0,0
14.08.2019 14:00:00 21,2 0,9 10 6 24 13 NNW 20 60 -
14.08.2019 13:00:00 20,8 1,1 5 3 25 13 ENE 20 60 0,0
14.08.2019 12:00:00 19,1 1,5 11 6 24 13 N 20 60 0,0
14.08.2019 11:00:00 17,8 0,0 8 5 20 11 NNE 20 60 0,0
14.08.2019 10:00:00 17,6 -0,7 6 3 10 5 W 20 60 0,0
14.08.2019 09:00:00 14,0 0,2 3 2 11 6 S 20 9 0,0
14.08.2019 08:00:00 11,8 0,9 5 3 10 5 SW 20 0 -
14.08.2019 07:00:00 10,1 0,6 6 3 10 5 SSW 20 0 0,0
14.08.2019 06:00:00 11,3 0,0 4 2 9 5 SW 20 0 0,0
14.08.2019 05:00:00 12,0 -2,0 8 4 16 9 SSW 20 0 0,0
14.08.2019 04:00:00 11,0 -1,4 9 5 14 8 S 20 0 0,0
14.08.2019 03:00:00 12,0 -2,0 6 4 14 7 SSW 20 0 0,0
14.08.2019 02:00:00 10,9 -3,6 4 2 11 6 SSW 20 0 -
14.08.2019 01:00:00 10,8 -3,6 4 2 10 6 SW 20 0 0,0
14.08.2019 00:00:00 10,1 -2,5 8 4 14 7 SSE 20 0 0,0
13.08.2019 23:00:00 10,7 -0,7 8 5 13 7 SSE 20 0 0,0
13.08.2019 22:00:00 11,9 -2,5 6 3 12 6 SE 20 0 0,0
13.08.2019 21:00:00 14,6 -2,7 5 3 24 13 ESE 20 34 0,0
13.08.2019 20:00:00 17,0 -3,3 10 6 29 15 N 20 60 -
13.08.2019 19:00:00 17,9 -2,5 11 6 34 19 NNW 20 60 0,0
13.08.2019 18:00:00 18,2 -3,3 13 7 42 23 N 20 60 0,0
13.08.2019 17:00:00 19,2 -3,6 10 6 30 16 WNW 20 60 0,0
13.08.2019 16:00:00 18,9 0,0 11 6 33 18 N 20 60 0,0
13.08.2019 15:00:00 17,5 -2,2 8 4 30 16 N 20 60 0,0
13.08.2019 14:00:00 16,0 -1,7 20 11 37 20 N 20 60 -
13.08.2019 13:00:00 16,0 -2,0 8 4 31 17 NNW 20 60 0,0
13.08.2019 12:00:00 15,2 0,9 10 5 25 13 NNE 20 60 0,0
13.08.2019 11:00:00 14,1 1,3 9 5 19 10 N 20 60 0,0
13.08.2019 10:00:00 13,6 -2,0 5 3 9 5 SE 20 60 0,0
13.08.2019 09:00:00 9,7 -2,7 4 2 9 5 SSE 20 12 0,0
13.08.2019 08:00:00 7,4 -1,4 5 3 9 5 SSW 20 0 -
13.08.2019 07:00:00 7,5 -2,2 4 2 9 5 S 20 0 0,0
13.08.2019 06:00:00 6,9 -1,2 7 4 11 6 S 20 0 0,0
13.08.2019 05:00:00 8,1 -1,0 10 6 15 8 SSE 20 0 0,0
13.08.2019 04:00:00 7,7 1,7 8 4 13 7 SE 20 0 0,0
13.08.2019 03:00:00 8,7 1,7 7 4 11 6 SE 20 0 0,0
13.08.2019 02:00:00 9,2 1,1 3 2 13 7 S 20 0 -
13.08.2019 01:00:00 9,3 1,7 3 2 13 7 SSW 20 0 0,0
13.08.2019 00:00:00 9,2 -0,3 4 2 10 6 S 20 0 0,0
12.08.2019 23:00:00 8,7 2,1 4 2 17 9 SE 20 0 0,0
12.08.2019 22:00:00 9,3 1,9 6 4 20 11 E 20 0 0,0
12.08.2019 21:00:00 11,0 0,2 5 3 22 12 ENE 20 31 0,0
12.08.2019 20:00:00 14,6 0,0 15 8 33 18 N 20 60 -
12.08.2019 19:00:00 13,9 -0,5 11 6 32 18 N 20 50 0,0
12.08.2019 18:00:00 15,8 0,0 18 10 35 19 N 20 60 0,0
12.08.2019 17:00:00 15,2 -1,4 20 11 37 20 N 20 60 0,0
12.08.2019 16:00:00 15,1 0,2 13 7 37 20 NNE 20 60 0,0
12.08.2019 15:00:00 14,3 1,5 20 11 40 21 NNE 20 60 0,0
12.08.2019 14:00:00 13,7 1,9 14 8 35 19 N 20 60 -
12.08.2019 13:00:00 12,5 2,7 16 8 33 18 NNE 20 60 0,0
12.08.2019 12:00:00 11,8 3,0 18 10 - - NNE 20 - -
12.08.2019 11:00:00 10,6 3,6 12 6 24 13 NNE 20 60 0,0
12.08.2019 10:00:00 8,6 3,6 9 5 29 15 NNE 20 51 0,0
12.08.2019 09:00:00 6,5 4,6 6 3 16 8 N 18 0 0,0
12.08.2019 08:00:00 5,9 3,4 3 1 10 6 SW 20 0 -
12.08.2019 07:00:00 6,1 4,1 4 2 14 7 NW 20 0 0,0
12.08.2019 06:00:00 6,3 4,1 5 3 16 9 W 20 0 0,0
12.08.2019 05:00:00 7,2 5,3 4 2 15 8 SSE 20 0 0,0
12.08.2019 04:00:00 7,6 5,9 7 4 25 14 ESE 18 0 0,0
12.08.2019 03:00:00 7,3 5,0 8 4 18 10 S 20 0 0,0
12.08.2019 02:00:00 8,3 3,2 9 5 28 15 E 20 0 -
12.08.2019 01:00:00 8,4 2,3 16 8 36 19 SSE 20 0 0,0
12.08.2019 00:00:00 10,4 -1,7 11 6 27 15 SE 20 0 0,0
11.08.2019 23:00:00 10,7 -0,5 4 2 22 12 NE 20 0 0,0
11.08.2019 22:00:00 11,7 1,9 10 5 29 16 SE 20 0 0,0
11.08.2019 21:00:00 13,1 2,7 9 5 26 14 N 20 12 0,0
11.08.2019 20:00:00 15,6 2,5 6 3 35 19 E 20 18 -
11.08.2019 19:00:00 15,1 4,5 11 6 30 16 NNW 20 1 0,0
11.08.2019 18:00:00 15,1 5,3 14 8 36 20 NNW 20 16 0,0
11.08.2019 17:00:00 16,3 5,6 10 6 37 20 NNE 20 42 0,0
11.08.2019 16:00:00 17,1 5,1 14 8 45 24 N 19 60 0,0
11.08.2019 15:00:00 17,1 6,8 10 5 34 19 N 19 35 0,0

tt = temperature
td = dewpoint
ff = wind speed
fx = gusts
dd = wind direction
vv = visibility
sd = sunshine duration
rr = precipitation

Next stations